sensor_id;sensor_type;location;lat;lon;timestamp;P1;durP1;ratioP1;P2;durP2;ratioP2
45274;SDS011;31019;43.780;25.948;2024-01-07T00:01:03;59.45;;;54.60;;
45274;SDS011;31019;43.780;25.948;2024-01-07T00:03:31;60.60;;;55.60;;
45274;SDS011;31019;43.780;25.948;2024-01-07T00:05:58;58.40;;;53.40;;
45274;SDS011;31019;43.780;25.948;2024-01-07T00:08:25;61.95;;;56.83;;
45274;SDS011;31019;43.780;25.948;2024-01-07T00:10:51;61.28;;;56.17;;
45274;SDS011;31019;43.780;25.948;2024-01-07T00:13:18;64.35;;;59.00;;
45274;SDS011;31019;43.780;25.948;2024-01-07T00:15:45;56.60;;;51.90;;
45274;SDS011;31019;43.780;25.948;2024-01-07T00:18:12;53.50;;;49.10;;
45274;SDS011;31019;43.780;25.948;2024-01-07T00:20:40;59.42;;;54.35;;
45274;SDS011;31019;43.780;25.948;2024-01-07T00:23:07;66.72;;;61.25;;
45274;SDS011;31019;43.780;25.948;2024-01-07T00:25:34;59.80;;;54.90;;
45274;SDS011;31019;43.780;25.948;2024-01-07T00:28:01;61.72;;;56.80;;
45274;SDS011;31019;43.780;25.948;2024-01-07T00:30:28;57.30;;;51.97;;
45274;SDS011;31019;43.780;25.948;2024-01-07T00:32:55;62.67;;;57.55;;
45274;SDS011;31019;43.780;25.948;2024-01-07T00:35:22;58.17;;;53.28;;
45274;SDS011;31019;43.780;25.948;2024-01-07T00:37:50;54.60;;;49.72;;
45274;SDS011;31019;43.780;25.948;2024-01-07T00:40:17;57.25;;;52.33;;
45274;SDS011;31019;43.780;25.948;2024-01-07T00:42:44;60.97;;;55.63;;
45274;SDS011;31019;43.780;25.948;2024-01-07T00:45:11;65.78;;;59.90;;
45274;SDS011;31019;43.780;25.948;2024-01-07T00:47:38;62.95;;;57.67;;
45274;SDS011;31019;43.780;25.948;2024-01-07T00:50:05;60.42;;;55.47;;
45274;SDS011;31019;43.780;25.948;2024-01-07T00:52:32;63.90;;;58.42;;
45274;SDS011;31019;43.780;25.948;2024-01-07T00:55:01;64.00;;;58.67;;
45274;SDS011;31019;43.780;25.948;2024-01-07T00:57:29;59.33;;;54.42;;
45274;SDS011;31019;43.780;25.948;2024-01-07T00:59:55;68.28;;;62.78;;
45274;SDS011;31019;43.780;25.948;2024-01-07T01:02:22;91.30;;;84.65;;
45274;SDS011;31019;43.780;25.948;2024-01-07T01:04:49;79.47;;;72.85;;
45274;SDS011;31019;43.780;25.948;2024-01-07T01:07:16;81.82;;;75.03;;
45274;SDS011;31019;43.780;25.948;2024-01-07T01:09:43;82.15;;;75.35;;
45274;SDS011;31019;43.780;25.948;2024-01-07T01:12:11;83.38;;;76.57;;
45274;SDS011;31019;43.780;25.948;2024-01-07T01:14:38;101.93;;;94.38;;
45274;SDS011;31019;43.780;25.948;2024-01-07T01:17:05;89.90;;;82.60;;
45274;SDS011;31019;43.780;25.948;2024-01-07T01:19:32;87.18;;;80.32;;
45274;SDS011;31019;43.780;25.948;2024-01-07T01:21:59;78.22;;;71.80;;
45274;SDS011;31019;43.780;25.948;2024-01-07T01:24:26;73.28;;;67.28;;
45274;SDS011;31019;43.780;25.948;2024-01-07T01:26:52;84.78;;;78.03;;
45274;SDS011;31019;43.780;25.948;2024-01-07T01:29:20;81.60;;;74.90;;
45274;SDS011;31019;43.780;25.948;2024-01-07T01:31:47;85.28;;;78.38;;
45274;SDS011;31019;43.780;25.948;2024-01-07T01:34:14;92.43;;;85.03;;
45274;SDS011;31019;43.780;25.948;2024-01-07T01:36:41;92.50;;;85.25;;
45274;SDS011;31019;43.780;25.948;2024-01-07T01:39:08;90.03;;;82.80;;
45274;SDS011;31019;43.780;25.948;2024-01-07T01:41:35;82.55;;;75.95;;
45274;SDS011;31019;43.780;25.948;2024-01-07T01:44:02;85.43;;;78.32;;
45274;SDS011;31019;43.780;25.948;2024-01-07T01:46:32;90.70;;;83.40;;
45274;SDS011;31019;43.780;25.948;2024-01-07T01:48:59;89.38;;;82.28;;
45274;SDS011;31019;43.780;25.948;2024-01-07T01:51:27;97.70;;;90.07;;
45274;SDS011;31019;43.780;25.948;2024-01-07T01:53:54;106.18;;;97.93;;
45274;SDS011;31019;43.780;25.948;2024-01-07T01:56:23;86.70;;;79.70;;
45274;SDS011;31019;43.780;25.948;2024-01-07T01:58:53;84.35;;;77.65;;
45274;SDS011;31019;43.780;25.948;2024-01-07T02:01:21;84.43;;;77.53;;
45274;SDS011;31019;43.780;25.948;2024-01-07T02:03:50;94.75;;;87.35;;
45274;SDS011;31019;43.780;25.948;2024-01-07T02:06:18;88.70;;;81.70;;
45274;SDS011;31019;43.780;25.948;2024-01-07T02:08:47;81.28;;;74.57;;
45274;SDS011;31019;43.780;25.948;2024-01-07T02:11:17;86.72;;;79.80;;
45274;SDS011;31019;43.780;25.948;2024-01-07T02:13:45;86.47;;;79.38;;
45274;SDS011;31019;43.780;25.948;2024-01-07T02:16:11;91.93;;;84.63;;
45274;SDS011;31019;43.780;25.948;2024-01-07T02:18:40;91.25;;;84.13;;
45274;SDS011;31019;43.780;25.948;2024-01-07T02:21:09;88.78;;;81.68;;
45274;SDS011;31019;43.780;25.948;2024-01-07T02:23:37;86.57;;;79.47;;
45274;SDS011;31019;43.780;25.948;2024-01-07T02:26:05;91.82;;;84.55;;
45274;SDS011;31019;43.780;25.948;2024-01-07T02:28:32;100.43;;;92.63;;
45274;SDS011;31019;43.780;25.948;2024-01-07T02:30:59;84.80;;;78.13;;
45274;SDS011;31019;43.780;25.948;2024-01-07T02:33:27;80.88;;;74.38;;
45274;SDS011;31019;43.780;25.948;2024-01-07T02:35:54;90.65;;;83.63;;
45274;SDS011;31019;43.780;25.948;2024-01-07T02:38:21;99.15;;;91.68;;
45274;SDS011;31019;43.780;25.948;2024-01-07T02:40:48;90.47;;;83.38;;
45274;SDS011;31019;43.780;25.948;2024-01-07T02:43:16;88.40;;;81.00;;
45274;SDS011;31019;43.780;25.948;2024-01-07T02:45:43;88.45;;;81.18;;
45274;SDS011;31019;43.780;25.948;2024-01-07T02:48:10;89.22;;;82.15;;
45274;SDS011;31019;43.780;25.948;2024-01-07T02:50:36;117.30;;;108.80;;
45274;SDS011;31019;43.780;25.948;2024-01-07T02:53:03;102.03;;;94.00;;
45274;SDS011;31019;43.780;25.948;2024-01-07T02:55:30;102.95;;;94.55;;
45274;SDS011;31019;43.780;25.948;2024-01-07T02:57:57;99.63;;;91.40;;
45274;SDS011;31019;43.780;25.948;2024-01-07T03:00:25;104.70;;;96.18;;
45274;SDS011;31019;43.780;25.948;2024-01-07T03:02:52;94.50;;;86.85;;
45274;SDS011;31019;43.780;25.948;2024-01-07T03:05:19;90.43;;;83.10;;
45274;SDS011;31019;43.780;25.948;2024-01-07T03:07:46;96.00;;;88.18;;
45274;SDS011;31019;43.780;25.948;2024-01-07T03:10:13;99.60;;;91.50;;
45274;SDS011;31019;43.780;25.948;2024-01-07T03:12:40;105.13;;;97.22;;
45274;SDS011;31019;43.780;25.948;2024-01-07T03:15:07;122.30;;;113.50;;
45274;SDS011;31019;43.780;25.948;2024-01-07T03:17:35;99.20;;;91.35;;
45274;SDS011;31019;43.780;25.948;2024-01-07T03:20:02;125.78;;;116.57;;
45274;SDS011;31019;43.780;25.948;2024-01-07T03:22:29;116.47;;;107.65;;
45274;SDS011;31019;43.780;25.948;2024-01-07T03:24:56;133.80;;;123.95;;
45274;SDS011;31019;43.780;25.948;2024-01-07T03:27:23;128.93;;;119.00;;
45274;SDS011;31019;43.780;25.948;2024-01-07T03:29:50;122.20;;;113.30;;
45274;SDS011;31019;43.780;25.948;2024-01-07T03:32:17;107.93;;;99.97;;
45274;SDS011;31019;43.780;25.948;2024-01-07T03:34:45;88.40;;;81.70;;
45274;SDS011;31019;43.780;25.948;2024-01-07T03:37:12;107.15;;;99.18;;
45274;SDS011;31019;43.780;25.948;2024-01-07T03:39:39;121.60;;;112.70;;
45274;SDS011;31019;43.780;25.948;2024-01-07T03:42:06;122.82;;;113.93;;
45274;SDS011;31019;43.780;25.948;2024-01-07T03:44:36;142.27;;;132.27;;
45274;SDS011;31019;43.780;25.948;2024-01-07T03:47:03;112.30;;;104.35;;
45274;SDS011;31019;43.780;25.948;2024-01-07T03:49:30;113.57;;;105.07;;
45274;SDS011;31019;43.780;25.948;2024-01-07T03:51:58;121.35;;;112.30;;
45274;SDS011;31019;43.780;25.948;2024-01-07T03:54:25;119.60;;;110.63;;
45274;SDS011;31019;43.780;25.948;2024-01-07T03:56:52;109.28;;;100.88;;
45274;SDS011;31019;43.780;25.948;2024-01-07T03:59:19;100.40;;;92.72;;
45274;SDS011;31019;43.780;25.948;2024-01-07T04:01:48;90.35;;;83.45;;
45274;SDS011;31019;43.780;25.948;2024-01-07T04:04:15;93.57;;;86.32;;
45274;SDS011;31019;43.780;25.948;2024-01-07T04:06:44;100.15;;;92.55;;
45274;SDS011;31019;43.780;25.948;2024-01-07T04:09:12;117.20;;;108.30;;
45274;SDS011;31019;43.780;25.948;2024-01-07T04:11:39;109.40;;;101.00;;
45274;SDS011;31019;43.780;25.948;2024-01-07T04:14:07;125.43;;;115.03;;
45274;SDS011;31019;43.780;25.948;2024-01-07T04:16:34;126.63;;;116.00;;
45274;SDS011;31019;43.780;25.948;2024-01-07T04:19:01;127.30;;;116.80;;
45274;SDS011;31019;43.780;25.948;2024-01-07T04:21:28;121.50;;;111.85;;
45274;SDS011;31019;43.780;25.948;2024-01-07T04:23:55;110.25;;;102.00;;
45274;SDS011;31019;43.780;25.948;2024-01-07T04:26:23;109.07;;;100.55;;
45274;SDS011;31019;43.780;25.948;2024-01-07T04:28:50;132.73;;;123.45;;
45274;SDS011;31019;43.780;25.948;2024-01-07T04:31:17;116.15;;;107.25;;
45274;SDS011;31019;43.780;25.948;2024-01-07T04:33:44;119.13;;;109.80;;
45274;SDS011;31019;43.780;25.948;2024-01-07T04:36:11;123.22;;;113.60;;
45274;SDS011;31019;43.780;25.948;2024-01-07T04:38:38;117.15;;;107.80;;
45274;SDS011;31019;43.780;25.948;2024-01-07T04:41:04;122.07;;;112.20;;
45274;SDS011;31019;43.780;25.948;2024-01-07T04:43:34;133.63;;;123.07;;
45274;SDS011;31019;43.780;25.948;2024-01-07T04:46:01;129.02;;;118.28;;
45274;SDS011;31019;43.780;25.948;2024-01-07T04:48:28;130.05;;;119.15;;
45274;SDS011;31019;43.780;25.948;2024-01-07T04:50:56;128.80;;;117.60;;
45274;SDS011;31019;43.780;25.948;2024-01-07T04:53:23;134.27;;;122.28;;
45274;SDS011;31019;43.780;25.948;2024-01-07T04:55:50;164.90;;;150.40;;
45274;SDS011;31019;43.780;25.948;2024-01-07T04:58:17;144.65;;;131.88;;
45274;SDS011;31019;43.780;25.948;2024-01-07T05:00:46;161.80;;;148.05;;
45274;SDS011;31019;43.780;25.948;2024-01-07T05:03:13;141.85;;;129.15;;
45274;SDS011;31019;43.780;25.948;2024-01-07T05:05:39;137.40;;;125.15;;
45274;SDS011;31019;43.780;25.948;2024-01-07T05:08:06;165.20;;;151.35;;
45274;SDS011;31019;43.780;25.948;2024-01-07T05:10:33;190.65;;;175.25;;
45274;SDS011;31019;43.780;25.948;2024-01-07T05:13:00;149.23;;;136.00;;
45274;SDS011;31019;43.780;25.948;2024-01-07T05:15:31;143.95;;;131.50;;
45274;SDS011;31019;43.780;25.948;2024-01-07T05:17:59;155.75;;;142.48;;
45274;SDS011;31019;43.780;25.948;2024-01-07T05:20:27;171.70;;;157.30;;
45274;SDS011;31019;43.780;25.948;2024-01-07T05:22:54;162.85;;;148.77;;
45274;SDS011;31019;43.780;25.948;2024-01-07T05:25:21;151.90;;;138.52;;
45274;SDS011;31019;43.780;25.948;2024-01-07T05:27:48;159.18;;;145.77;;
45274;SDS011;31019;43.780;25.948;2024-01-07T05:30:14;150.45;;;137.65;;
45274;SDS011;31019;43.780;25.948;2024-01-07T05:32:41;150.40;;;137.60;;
45274;SDS011;31019;43.780;25.948;2024-01-07T05:35:10;152.32;;;138.77;;
45274;SDS011;31019;43.780;25.948;2024-01-07T05:37:36;148.10;;;135.07;;
45274;SDS011;31019;43.780;25.948;2024-01-07T05:40:04;172.05;;;157.85;;
45274;SDS011;31019;43.780;25.948;2024-01-07T05:42:31;159.23;;;145.88;;
45274;SDS011;31019;43.780;25.948;2024-01-07T05:44:58;141.18;;;128.88;;
45274;SDS011;31019;43.780;25.948;2024-01-07T05:47:28;148.63;;;135.52;;
45274;SDS011;31019;43.780;25.948;2024-01-07T05:49:55;174.38;;;160.02;;
45274;SDS011;31019;43.780;25.948;2024-01-07T05:52:23;153.32;;;140.52;;
45274;SDS011;31019;43.780;25.948;2024-01-07T05:54:50;154.35;;;141.90;;
45274;SDS011;31019;43.780;25.948;2024-01-07T05:57:17;149.85;;;137.75;;
45274;SDS011;31019;43.780;25.948;2024-01-07T05:59:45;169.55;;;156.07;;
45274;SDS011;31019;43.780;25.948;2024-01-07T06:02:12;151.15;;;138.32;;
45274;SDS011;31019;43.780;25.948;2024-01-07T06:04:39;146.02;;;133.98;;
45274;SDS011;31019;43.780;25.948;2024-01-07T06:07:06;136.70;;;125.05;;
45274;SDS011;31019;43.780;25.948;2024-01-07T06:09:34;152.13;;;140.15;;
45274;SDS011;31019;43.780;25.948;2024-01-07T06:12:01;144.43;;;132.40;;
45274;SDS011;31019;43.780;25.948;2024-01-07T06:14:29;143.55;;;131.77;;
45274;SDS011;31019;43.780;25.948;2024-01-07T06:16:56;149.75;;;137.35;;
45274;SDS011;31019;43.780;25.948;2024-01-07T06:19:23;141.70;;;129.10;;
45274;SDS011;31019;43.780;25.948;2024-01-07T06:21:49;165.75;;;153.60;;
45274;SDS011;31019;43.780;25.948;2024-01-07T06:24:16;141.50;;;130.20;;
45274;SDS011;31019;43.780;25.948;2024-01-07T06:26:45;141.73;;;130.43;;
45274;SDS011;31019;43.780;25.948;2024-01-07T06:29:12;140.38;;;129.05;;
45274;SDS011;31019;43.780;25.948;2024-01-07T06:31:42;140.55;;;128.88;;
45274;SDS011;31019;43.780;25.948;2024-01-07T06:34:10;133.43;;;122.43;;
45274;SDS011;31019;43.780;25.948;2024-01-07T06:36:39;145.68;;;134.70;;
45274;SDS011;31019;43.780;25.948;2024-01-07T06:39:06;148.73;;;137.73;;
45274;SDS011;31019;43.780;25.948;2024-01-07T06:41:33;150.70;;;138.98;;
45274;SDS011;31019;43.780;25.948;2024-01-07T06:44:01;134.63;;;124.03;;
45274;SDS011;31019;43.780;25.948;2024-01-07T06:46:29;141.52;;;130.77;;
45274;SDS011;31019;43.780;25.948;2024-01-07T06:48:55;138.45;;;127.90;;
45274;SDS011;31019;43.780;25.948;2024-01-07T06:51:22;141.70;;;130.90;;
45274;SDS011;31019;43.780;25.948;2024-01-07T06:53:49;134.95;;;124.57;;
45274;SDS011;31019;43.780;25.948;2024-01-07T06:56:16;142.02;;;131.02;;
45274;SDS011;31019;43.780;25.948;2024-01-07T06:58:43;136.65;;;126.05;;
45274;SDS011;31019;43.780;25.948;2024-01-07T07:01:12;132.45;;;122.70;;
45274;SDS011;31019;43.780;25.948;2024-01-07T07:03:39;132.07;;;122.45;;
45274;SDS011;31019;43.780;25.948;2024-01-07T07:06:07;135.60;;;125.72;;
45274;SDS011;31019;43.780;25.948;2024-01-07T07:08:34;126.50;;;116.88;;
45274;SDS011;31019;43.780;25.948;2024-01-07T07:11:00;123.85;;;114.50;;
45274;SDS011;31019;43.780;25.948;2024-01-07T07:13:28;131.23;;;121.28;;
45274;SDS011;31019;43.780;25.948;2024-01-07T07:15:55;125.28;;;116.28;;
45274;SDS011;31019;43.780;25.948;2024-01-07T07:18:23;131.15;;;121.85;;
45274;SDS011;31019;43.780;25.948;2024-01-07T07:20:50;136.43;;;126.88;;
45274;SDS011;31019;43.780;25.948;2024-01-07T07:23:17;128.73;;;119.22;;
45274;SDS011;31019;43.780;25.948;2024-01-07T07:25:44;128.30;;;119.07;;
45274;SDS011;31019;43.780;25.948;2024-01-07T07:28:11;126.78;;;117.97;;
45274;SDS011;31019;43.780;25.948;2024-01-07T07:30:38;116.25;;;108.55;;
45274;SDS011;31019;43.780;25.948;2024-01-07T07:33:05;114.47;;;106.38;;
45274;SDS011;31019;43.780;25.948;2024-01-07T07:35:33;107.50;;;100.10;;
45274;SDS011;31019;43.780;25.948;2024-01-07T07:38:00;105.82;;;98.70;;
45274;SDS011;31019;43.780;25.948;2024-01-07T07:40:26;100.60;;;93.70;;
45274;SDS011;31019;43.780;25.948;2024-01-07T07:42:53;106.68;;;99.38;;
45274;SDS011;31019;43.780;25.948;2024-01-07T07:45:20;107.10;;;99.90;;
45274;SDS011;31019;43.780;25.948;2024-01-07T07:47:47;113.30;;;105.63;;
45274;SDS011;31019;43.780;25.948;2024-01-07T07:50:14;105.25;;;98.15;;
45274;SDS011;31019;43.780;25.948;2024-01-07T07:52:42;81.07;;;75.45;;
45274;SDS011;31019;43.780;25.948;2024-01-07T07:55:10;66.32;;;61.55;;
45274;SDS011;31019;43.780;25.948;2024-01-07T07:57:37;74.72;;;69.63;;
45274;SDS011;31019;43.780;25.948;2024-01-07T08:00:04;62.13;;;57.03;;
45274;SDS011;31019;43.780;25.948;2024-01-07T08:02:32;65.60;;;61.00;;
45274;SDS011;31019;43.780;25.948;2024-01-07T08:04:58;64.05;;;59.55;;
45274;SDS011;31019;43.780;25.948;2024-01-07T08:07:25;77.35;;;71.88;;
45274;SDS011;31019;43.780;25.948;2024-01-07T08:09:54;69.90;;;65.20;;
45274;SDS011;31019;43.780;25.948;2024-01-07T08:12:22;58.65;;;54.75;;
45274;SDS011;31019;43.780;25.948;2024-01-07T08:14:49;52.40;;;48.90;;
45274;SDS011;31019;43.780;25.948;2024-01-07T08:17:15;51.28;;;47.78;;
45274;SDS011;31019;43.780;25.948;2024-01-07T08:19:43;51.38;;;47.78;;
45274;SDS011;31019;43.780;25.948;2024-01-07T08:22:10;47.90;;;44.50;;
45274;SDS011;31019;43.780;25.948;2024-01-07T08:24:37;44.50;;;41.35;;
45274;SDS011;31019;43.780;25.948;2024-01-07T08:27:06;43.20;;;40.20;;
45274;SDS011;31019;43.780;25.948;2024-01-07T08:29:32;38.17;;;35.38;;
45274;SDS011;31019;43.780;25.948;2024-01-07T08:32:00;36.95;;;34.20;;
45274;SDS011;31019;43.780;25.948;2024-01-07T08:34:27;30.77;;;28.58;;
45274;SDS011;31019;43.780;25.948;2024-01-07T08:36:54;27.70;;;25.50;;
45274;SDS011;31019;43.780;25.948;2024-01-07T08:39:21;24.70;;;22.98;;
45274;SDS011;31019;43.780;25.948;2024-01-07T08:41:48;23.05;;;21.45;;
45274;SDS011;31019;43.780;25.948;2024-01-07T08:44:16;23.52;;;21.92;;
45274;SDS011;31019;43.780;25.948;2024-01-07T08:46:43;22.20;;;20.60;;
45274;SDS011;31019;43.780;25.948;2024-01-07T08:49:10;23.25;;;21.60;;
45274;SDS011;31019;43.780;25.948;2024-01-07T08:51:38;23.33;;;21.63;;
45274;SDS011;31019;43.780;25.948;2024-01-07T08:54:05;22.17;;;20.58;;
45274;SDS011;31019;43.780;25.948;2024-01-07T08:56:32;21.50;;;19.90;;
45274;SDS011;31019;43.780;25.948;2024-01-07T08:58:59;20.58;;;19.08;;
45274;SDS011;31019;43.780;25.948;2024-01-07T09:01:27;20.45;;;18.95;;
45274;SDS011;31019;43.780;25.948;2024-01-07T09:03:54;27.23;;;25.10;;
45274;SDS011;31019;43.780;25.948;2024-01-07T09:06:22;24.38;;;22.58;;
45274;SDS011;31019;43.780;25.948;2024-01-07T09:08:49;22.10;;;20.27;;
45274;SDS011;31019;43.780;25.948;2024-01-07T09:11:18;20.63;;;19.13;;
45274;SDS011;31019;43.780;25.948;2024-01-07T09:13:45;22.08;;;20.38;;
45274;SDS011;31019;43.780;25.948;2024-01-07T09:16:13;21.48;;;19.88;;
45274;SDS011;31019;43.780;25.948;2024-01-07T09:18:42;20.50;;;19.00;;
45274;SDS011;31019;43.780;25.948;2024-01-07T09:21:10;21.60;;;20.00;;
45274;SDS011;31019;43.780;25.948;2024-01-07T09:23:36;20.77;;;19.27;;
45274;SDS011;31019;43.780;25.948;2024-01-07T09:26:03;20.30;;;18.80;;
45274;SDS011;31019;43.780;25.948;2024-01-07T09:28:30;21.02;;;19.52;;
45274;SDS011;31019;43.780;25.948;2024-01-07T09:30:57;22.15;;;20.60;;
45274;SDS011;31019;43.780;25.948;2024-01-07T09:33:24;21.88;;;20.27;;
45274;SDS011;31019;43.780;25.948;2024-01-07T09:35:52;20.63;;;19.13;;
45274;SDS011;31019;43.780;25.948;2024-01-07T09:38:20;21.60;;;19.92;;
45274;SDS011;31019;43.780;25.948;2024-01-07T09:40:47;21.77;;;20.17;;
45274;SDS011;31019;43.780;25.948;2024-01-07T09:43:14;20.77;;;19.17;;
45274;SDS011;31019;43.780;25.948;2024-01-07T09:45:41;23.85;;;22.00;;
45274;SDS011;31019;43.780;25.948;2024-01-07T09:48:12;21.60;;;20.00;;
45274;SDS011;31019;43.780;25.948;2024-01-07T09:50:39;28.15;;;25.65;;
45274;SDS011;31019;43.780;25.948;2024-01-07T09:53:07;37.78;;;35.17;;
45274;SDS011;31019;43.780;25.948;2024-01-07T09:55:45;30.05;;;28.02;;
45274;SDS011;31019;43.780;25.948;2024-01-07T09:58:18;29.92;;;27.42;;
45274;SDS011;31019;43.780;25.948;2024-01-07T10:00:46;29.25;;;27.35;;
45274;SDS011;31019;43.780;25.948;2024-01-07T10:03:13;44.22;;;41.13;;
45274;SDS011;31019;43.780;25.948;2024-01-07T10:05:40;48.22;;;45.03;;
45274;SDS011;31019;43.780;25.948;2024-01-07T10:08:08;54.30;;;50.70;;
45274;SDS011;31019;43.780;25.948;2024-01-07T10:10:35;60.20;;;56.45;;
45274;SDS011;31019;43.780;25.948;2024-01-07T10:13:03;62.95;;;58.80;;
45274;SDS011;31019;43.780;25.948;2024-01-07T10:15:31;71.50;;;66.95;;
45274;SDS011;31019;43.780;25.948;2024-01-07T10:18:02;75.47;;;70.68;;
45274;SDS011;31019;43.780;25.948;2024-01-07T10:20:31;67.82;;;63.47;;
45274;SDS011;31019;43.780;25.948;2024-01-07T10:22:58;73.63;;;68.82;;
45274;SDS011;31019;43.780;25.948;2024-01-07T10:25:27;72.47;;;67.90;;
45274;SDS011;31019;43.780;25.948;2024-01-07T10:27:54;75.75;;;70.95;;
45274;SDS011;31019;43.780;25.948;2024-01-07T10:30:25;76.40;;;71.30;;
45274;SDS011;31019;43.780;25.948;2024-01-07T10:32:54;77.85;;;72.78;;
45274;SDS011;31019;43.780;25.948;2024-01-07T10:35:23;78.50;;;73.20;;
45274;SDS011;31019;43.780;25.948;2024-01-07T10:38:00;78.78;;;73.53;;
45274;SDS011;31019;43.780;25.948;2024-01-07T10:40:29;76.28;;;71.28;;
45274;SDS011;31019;43.780;25.948;2024-01-07T10:42:57;76.85;;;71.95;;
45274;SDS011;31019;43.780;25.948;2024-01-07T10:45:25;72.88;;;68.00;;
45274;SDS011;31019;43.780;25.948;2024-01-07T10:47:54;70.35;;;65.68;;
45274;SDS011;31019;43.780;25.948;2024-01-07T10:50:23;70.30;;;65.43;;
45274;SDS011;31019;43.780;25.948;2024-01-07T10:52:54;57.10;;;53.20;;
45274;SDS011;31019;43.780;25.948;2024-01-07T10:55:25;57.00;;;53.10;;
45274;SDS011;31019;43.780;25.948;2024-01-07T10:57:58;49.97;;;46.58;;
45274;SDS011;31019;43.780;25.948;2024-01-07T11:00:26;49.55;;;46.05;;
45274;SDS011;31019;43.780;25.948;2024-01-07T11:03:10;50.13;;;46.53;;
45274;SDS011;31019;43.780;25.948;2024-01-07T11:05:44;45.92;;;42.50;;
45274;SDS011;31019;43.780;25.948;2024-01-07T11:08:19;47.13;;;43.80;;
45274;SDS011;31019;43.780;25.948;2024-01-07T11:10:53;48.15;;;44.95;;
45274;SDS011;31019;43.780;25.948;2024-01-07T11:13:32;56.92;;;53.33;;
45274;SDS011;31019;43.780;25.948;2024-01-07T11:16:01;51.22;;;47.83;;
45274;SDS011;31019;43.780;25.948;2024-01-07T11:18:28;52.00;;;48.60;;
45274;SDS011;31019;43.780;25.948;2024-01-07T11:20:59;50.92;;;47.47;;
45274;SDS011;31019;43.780;25.948;2024-01-07T11:23:27;58.22;;;54.28;;
45274;SDS011;31019;43.780;25.948;2024-01-07T11:25:59;59.20;;;55.30;;
45274;SDS011;31019;43.780;25.948;2024-01-07T11:28:43;56.90;;;53.30;;
45274;SDS011;31019;43.780;25.948;2024-01-07T11:31:12;50.67;;;47.17;;
45274;SDS011;31019;43.780;25.948;2024-01-07T11:33:40;57.92;;;53.97;;
45274;SDS011;31019;43.780;25.948;2024-01-07T11:36:09;50.72;;;47.33;;
45274;SDS011;31019;43.780;25.948;2024-01-07T11:38:37;48.08;;;44.70;;
45274;SDS011;31019;43.780;25.948;2024-01-07T11:41:07;43.50;;;40.60;;
45274;SDS011;31019;43.780;25.948;2024-01-07T11:43:37;40.88;;;38.08;;
45274;SDS011;31019;43.780;25.948;2024-01-07T11:46:06;43.85;;;40.90;;
45274;SDS011;31019;43.780;25.948;2024-01-07T11:48:32;47.22;;;43.88;;
45274;SDS011;31019;43.780;25.948;2024-01-07T11:50:59;48.35;;;44.95;;
45274;SDS011;31019;43.780;25.948;2024-01-07T11:53:26;46.08;;;42.97;;
45274;SDS011;31019;43.780;25.948;2024-01-07T11:55:54;37.85;;;35.15;;
45274;SDS011;31019;43.780;25.948;2024-01-07T11:58:21;29.33;;;27.23;;
45274;SDS011;31019;43.780;25.948;2024-01-07T12:00:47;30.45;;;28.25;;
45274;SDS011;31019;43.780;25.948;2024-01-07T12:03:16;41.40;;;38.40;;
45274;SDS011;31019;43.780;25.948;2024-01-07T12:05:43;30.45;;;28.25;;
45274;SDS011;31019;43.780;25.948;2024-01-07T12:08:12;27.73;;;25.63;;
45274;SDS011;31019;43.780;25.948;2024-01-07T12:10:40;27.35;;;25.25;;
45274;SDS011;31019;43.780;25.948;2024-01-07T12:13:07;25.52;;;23.63;;
45274;SDS011;31019;43.780;25.948;2024-01-07T12:15:37;24.90;;;23.10;;
45274;SDS011;31019;43.780;25.948;2024-01-07T12:18:04;31.30;;;29.10;;
45274;SDS011;31019;43.780;25.948;2024-01-07T12:20:32;28.05;;;26.05;;
45274;SDS011;31019;43.780;25.948;2024-01-07T12:23:05;28.70;;;26.60;;
45274;SDS011;31019;43.780;25.948;2024-01-07T12:25:33;37.45;;;34.75;;
45274;SDS011;31019;43.780;25.948;2024-01-07T12:28:00;34.97;;;32.47;;
45274;SDS011;31019;43.780;25.948;2024-01-07T12:30:27;43.70;;;40.50;;
45274;SDS011;31019;43.780;25.948;2024-01-07T12:32:56;38.88;;;36.08;;
45274;SDS011;31019;43.780;25.948;2024-01-07T12:35:24;36.30;;;33.60;;
45274;SDS011;31019;43.780;25.948;2024-01-07T12:37:53;40.55;;;37.65;;
45274;SDS011;31019;43.780;25.948;2024-01-07T12:40:21;46.00;;;42.70;;
45274;SDS011;31019;43.780;25.948;2024-01-07T12:42:49;46.13;;;42.70;;
45274;SDS011;31019;43.780;25.948;2024-01-07T12:45:16;42.60;;;39.40;;
45274;SDS011;31019;43.780;25.948;2024-01-07T12:47:43;43.15;;;39.78;;
45274;SDS011;31019;43.780;25.948;2024-01-07T12:50:12;43.78;;;40.47;;
45274;SDS011;31019;43.780;25.948;2024-01-07T12:52:41;45.63;;;42.30;;
45274;SDS011;31019;43.780;25.948;2024-01-07T12:55:09;36.15;;;33.35;;
45274;SDS011;31019;43.780;25.948;2024-01-07T12:57:39;36.50;;;33.80;;
45274;SDS011;31019;43.780;25.948;2024-01-07T13:00:06;38.80;;;36.13;;
45274;SDS011;31019;43.780;25.948;2024-01-07T13:02:34;43.42;;;40.38;;
45274;SDS011;31019;43.780;25.948;2024-01-07T13:05:01;39.08;;;36.28;;
45274;SDS011;31019;43.780;25.948;2024-01-07T13:07:29;42.70;;;39.60;;
45274;SDS011;31019;43.780;25.948;2024-01-07T13:09:56;43.60;;;40.63;;
45274;SDS011;31019;43.780;25.948;2024-01-07T13:12:24;40.88;;;37.78;;
45274;SDS011;31019;43.780;25.948;2024-01-07T13:14:51;48.67;;;43.97;;
45274;SDS011;31019;43.780;25.948;2024-01-07T13:17:18;52.83;;;47.22;;
45274;SDS011;31019;43.780;25.948;2024-01-07T13:19:45;58.55;;;53.10;;
45274;SDS011;31019;43.780;25.948;2024-01-07T13:22:12;54.67;;;50.95;;
45274;SDS011;31019;43.780;25.948;2024-01-07T13:24:40;52.25;;;48.15;;
45274;SDS011;31019;43.780;25.948;2024-01-07T13:27:06;52.95;;;49.35;;
45274;SDS011;31019;43.780;25.948;2024-01-07T13:29:36;55.95;;;51.95;;
45274;SDS011;31019;43.780;25.948;2024-01-07T13:32:03;52.72;;;49.13;;
45274;SDS011;31019;43.780;25.948;2024-01-07T13:34:30;52.20;;;48.60;;
45274;SDS011;31019;43.780;25.948;2024-01-07T13:36:56;54.28;;;50.58;;
45274;SDS011;31019;43.780;25.948;2024-01-07T13:39:23;56.35;;;52.60;;
45274;SDS011;31019;43.780;25.948;2024-01-07T13:41:50;59.33;;;55.38;;
45274;SDS011;31019;43.780;25.948;2024-01-07T13:44:18;60.40;;;56.45;;
45274;SDS011;31019;43.780;25.948;2024-01-07T13:46:46;61.03;;;57.03;;
45274;SDS011;31019;43.780;25.948;2024-01-07T13:49:13;67.78;;;63.28;;
45274;SDS011;31019;43.780;25.948;2024-01-07T13:51:40;75.80;;;70.60;;
45274;SDS011;31019;43.780;25.948;2024-01-07T13:54:07;69.68;;;64.95;;
45274;SDS011;31019;43.780;25.948;2024-01-07T13:56:36;72.78;;;67.35;;
45274;SDS011;31019;43.780;25.948;2024-01-07T13:59:06;62.92;;;58.53;;
45274;SDS011;31019;43.780;25.948;2024-01-07T14:01:33;63.55;;;59.15;;
45274;SDS011;31019;43.780;25.948;2024-01-07T14:04:01;63.63;;;59.42;;